Startpagina
METAR-TAF:

METAR-TAF

Vliegvelden :

Harare, Zimbabwe

Internationale luchthaven Harare

breedte: 17-55S, lengte: 031-08E, hoogte: 1479 m

Actueel weer

Dit bericht is 1 uur en het 8 minuten geleden gemaakt, om 23:00 UTC
Wind 4 kt uit het oosten
Temperatuur 7°C
Vochtigheid 100%
Druk 1026 hPa
Zicht 10 km of meer
geen wolken onder 1500 m en geen cumulonimbus

METAR: FVHA 272300Z 10004KT CAVOK 07/07 Q1026 NOSIG

Tijdstip: 02:08 (00:08 UTC)

Verwachting

Dit bericht is 20 uur en het 8 minuten geleden gemaakt, om 04:00 UTC
Verwachting geldig van 27 om 06 UTC tot 28 om 12 UTC
Wind 2 kt uit het noordnoordoosten
Zicht 10 km of meer
geen wolken onder 1500 m en geen cumulonimbus
Wijzigt naar
van 27 om 08 UTC tot 27 om 10 UTC
Verspreide wolken op 3000 ft
Wijzigt naar
van 27 om 10 UTC tot 27 om 12 UTC
Gebroken wolken op 4500 ft
Van 27 om 1300 UTC
Zicht 10 km of meer
geen wolken onder 1500 m en geen cumulonimbus

TAF: FVHA 270400Z 2706/2812 02002KT CAVOK BECMG 2708/2710 SCT030 BECMG 2710/2712 BKN045 FM271300 CAVOK

Waarnemingen en weersverwachtingen van meer dan 4000 vliegvelden (METAR en TAF).

De beschikbare stations zijn de gele en rode punten op de kaart.

Ga met uw muis naar het station om de naam te zien.

Klik dan om waarnemingen en weersverwachtingen te zien.

kaart wijzigen: klik op de groene knoppen met een zwart kruis om in te zoomen, op de groene knop met een streepje om uit te zoomen of op de groene pijlen voor aangrenzende kaarten.


METAR-TAF: